Middleton, WI

3:29 PM CST on February 14, 2016 (GMT -0600)
Middleton | | Change Station
CLOSE
Current Station
Airport
Location: Middleton,
Elevation: 928 ft
Nearby Weather Stations
Active Advisory: Winter Weather Advisory

Elev 928 ft 43.12 °N, 89.53 °W | Updated 14 minutes ago

Overcast
Overcast
17 °F
Feels Like 5 °F
N
10
Wind Variable Wind from SE

Today
High -- | Low -- °F
--% Chance of Precip.
Yesterday
High -- | Low -- °F
Precip. -- in
Pressure 30.04 in
Visibility 1.2 miles
Clouds Overcast 1200 ft
Windchill 5 °F
Dew Point 12 °F
Humidity 81%
Rainfall 0.00 in
Snow Depth Not available.
6:57 AM 5:27 PM
Waxing Crescent, 45% visible
METAR KC29 142115Z AUTO 13009KT 1 1/4SM OVC012 M08/M11 A3004 RMK AO1 T10831110
Pressure 30.04 in
Visibility 1.2 miles
Clouds Overcast 1200 ft
Windchill 5 °F
Dew Point 12 °F
Humidity 81%
Rainfall 0.00 in
Snow Depth Not available.
6:57 AM 5:27 PM
Waxing Crescent, 45% visible
METAR KC29 142115Z AUTO 13009KT 1 1/4SM OVC012 M08/M11 A3004 RMK AO1 T10831110

10-Day Weather Forecast

Almanac

Astronomy

Feb. 14, 2016 Rise Set
Actual Time
Civil Twilight
Nautical Twilight
Astronomical Twilight
Moon
Length of Visible Light
Length of Day
Tomorrow will be .
, % of the Moon is Illuminated

Today's Extremes

State Highs State Lows

Community

WunderPhotos

Upload Photos

1,892,887 photos uploaded!

WunderBlog® & News

Nearby

Air Quality

  Air Quality AQ Index Pollutant
Not available.

Snow Depth

Station Depth Elevation

Earthquake Activity

City Distance Mag. Time & Date
Minimum magnitude displayed is 2.5.

Coastal Water Temperatures

Place Temperature

Stations

Nearby Weather Stations

Station Location Temp. Windchill Dew Point Humidity Wind Precip. Elev Updated Type
                   

Watches & Warnings

Winter Weather Advisory
Issued: 3:29 PM CST Feb. 14, 2016 – National Weather Service

... Winter Weather Advisory remains in effect until 9 PM CST this
evening...

A Winter Weather Advisory remains in effect until 9 PM CST this
evening.

* Timing... expect light to moderate snow to linger into early this
evening... before tapering off by later this evening.

* Precipitation rates... light to moderate snowfall rates will
occur until early this evening... with a quick inch or so of
powdery snow expected. Lower rates are then expected into this
evening.

* Snow accumulations... total snow accumulations of 2 to 3 inches
are expected. The snow will be fluffy.

* Winds / visibilities... southeast winds up to 15 mph... with wind
gusts up to 25 mph... may result in some blowing and drifting
snow into early this evening. Look for reduced visibilities at
times.

* Impacts... plan on slippery Road conditions with reduced
visibilities at times.

Wood